sensor_id;sensor_type;location;lat;lon;timestamp;P1;durP1;ratioP1;P2;durP2;ratioP2
5871;SDS011;2962;51.312;7.378;2023-11-22T00:01:26;19.03;;;12.27;;
5871;SDS011;2962;51.312;7.378;2023-11-22T00:03:52;17.33;;;11.87;;
5871;SDS011;2962;51.312;7.378;2023-11-22T00:06:17;25.07;;;12.90;;
5871;SDS011;2962;51.312;7.378;2023-11-22T00:08:45;18.50;;;11.50;;
5871;SDS011;2962;51.312;7.378;2023-11-22T00:11:11;14.43;;;10.77;;
5871;SDS011;2962;51.312;7.378;2023-11-22T00:13:39;18.57;;;12.00;;
5871;SDS011;2962;51.312;7.378;2023-11-22T00:16:04;22.60;;;11.47;;
5871;SDS011;2962;51.312;7.378;2023-11-22T00:18:33;17.47;;;11.53;;
5871;SDS011;2962;51.312;7.378;2023-11-22T00:20:59;14.87;;;11.40;;
5871;SDS011;2962;51.312;7.378;2023-11-22T00:23:24;15.00;;;10.73;;
5871;SDS011;2962;51.312;7.378;2023-11-22T00:25:54;14.20;;;11.00;;
5871;SDS011;2962;51.312;7.378;2023-11-22T00:28:19;18.17;;;10.80;;
5871;SDS011;2962;51.312;7.378;2023-11-22T00:30:44;14.87;;;10.60;;
5871;SDS011;2962;51.312;7.378;2023-11-22T00:33:10;16.40;;;10.17;;
5871;SDS011;2962;51.312;7.378;2023-11-22T00:35:35;16.90;;;11.13;;
5871;SDS011;2962;51.312;7.378;2023-11-22T00:38:00;17.70;;;10.57;;
5871;SDS011;2962;51.312;7.378;2023-11-22T00:40:26;16.90;;;11.60;;
5871;SDS011;2962;51.312;7.378;2023-11-22T00:42:51;16.80;;;10.73;;
5871;SDS011;2962;51.312;7.378;2023-11-22T00:45:17;18.63;;;11.67;;
5871;SDS011;2962;51.312;7.378;2023-11-22T00:47:43;14.03;;;10.70;;
5871;SDS011;2962;51.312;7.378;2023-11-22T00:50:08;15.27;;;10.53;;
5871;SDS011;2962;51.312;7.378;2023-11-22T00:52:34;14.80;;;11.40;;
5871;SDS011;2962;51.312;7.378;2023-11-22T00:54:59;17.47;;;10.50;;
5871;SDS011;2962;51.312;7.378;2023-11-22T00:57:25;17.93;;;11.10;;
5871;SDS011;2962;51.312;7.378;2023-11-22T00:59:52;14.27;;;10.70;;
5871;SDS011;2962;51.312;7.378;2023-11-22T01:02:18;14.60;;;10.87;;
5871;SDS011;2962;51.312;7.378;2023-11-22T01:04:44;14.73;;;10.60;;
5871;SDS011;2962;51.312;7.378;2023-11-22T01:07:09;17.20;;;11.10;;
5871;SDS011;2962;51.312;7.378;2023-11-22T01:09:34;11.83;;;10.20;;
5871;SDS011;2962;51.312;7.378;2023-11-22T01:12:00;13.60;;;10.87;;
5871;SDS011;2962;51.312;7.378;2023-11-22T01:14:26;20.10;;;11.57;;
5871;SDS011;2962;51.312;7.378;2023-11-22T01:16:52;12.00;;;9.87;;
5871;SDS011;2962;51.312;7.378;2023-11-22T01:19:19;20.67;;;14.03;;
5871;SDS011;2962;51.312;7.378;2023-11-22T01:21:44;13.77;;;11.20;;
5871;SDS011;2962;51.312;7.378;2023-11-22T01:24:10;16.07;;;11.33;;
5871;SDS011;2962;51.312;7.378;2023-11-22T01:26:36;15.83;;;11.37;;
5871;SDS011;2962;51.312;7.378;2023-11-22T01:29:01;16.30;;;10.87;;
5871;SDS011;2962;51.312;7.378;2023-11-22T01:31:27;13.10;;;11.60;;
5871;SDS011;2962;51.312;7.378;2023-11-22T01:33:53;18.73;;;11.50;;
5871;SDS011;2962;51.312;7.378;2023-11-22T01:36:19;17.20;;;11.63;;
5871;SDS011;2962;51.312;7.378;2023-11-22T01:38:44;16.33;;;11.77;;
5871;SDS011;2962;51.312;7.378;2023-11-22T01:41:11;15.27;;;11.00;;
5871;SDS011;2962;51.312;7.378;2023-11-22T01:43:38;16.37;;;11.40;;
5871;SDS011;2962;51.312;7.378;2023-11-22T01:46:04;15.00;;;10.93;;
5871;SDS011;2962;51.312;7.378;2023-11-22T01:48:31;19.07;;;13.83;;
5871;SDS011;2962;51.312;7.378;2023-11-22T01:50:57;17.67;;;12.00;;
5871;SDS011;2962;51.312;7.378;2023-11-22T01:53:22;17.33;;;12.13;;
5871;SDS011;2962;51.312;7.378;2023-11-22T01:55:49;19.10;;;12.63;;
5871;SDS011;2962;51.312;7.378;2023-11-22T01:58:14;17.87;;;12.47;;
5871;SDS011;2962;51.312;7.378;2023-11-22T02:00:44;17.50;;;12.00;;
5871;SDS011;2962;51.312;7.378;2023-11-22T02:03:13;19.73;;;13.17;;
5871;SDS011;2962;51.312;7.378;2023-11-22T02:05:39;24.33;;;13.80;;
5871;SDS011;2962;51.312;7.378;2023-11-22T02:08:07;19.20;;;13.40;;
5871;SDS011;2962;51.312;7.378;2023-11-22T02:10:33;25.07;;;13.70;;
5871;SDS011;2962;51.312;7.378;2023-11-22T02:12:58;17.10;;;12.87;;
5871;SDS011;2962;51.312;7.378;2023-11-22T02:15:23;20.00;;;13.43;;
5871;SDS011;2962;51.312;7.378;2023-11-22T02:17:49;22.10;;;13.70;;
5871;SDS011;2962;51.312;7.378;2023-11-22T02:20:14;18.13;;;13.00;;
5871;SDS011;2962;51.312;7.378;2023-11-22T02:22:46;20.30;;;13.37;;
5871;SDS011;2962;51.312;7.378;2023-11-22T02:25:12;18.93;;;11.90;;
5871;SDS011;2962;51.312;7.378;2023-11-22T02:27:37;19.63;;;12.50;;
5871;SDS011;2962;51.312;7.378;2023-11-22T02:30:03;19.40;;;14.10;;
5871;SDS011;2962;51.312;7.378;2023-11-22T02:32:30;18.77;;;13.10;;
5871;SDS011;2962;51.312;7.378;2023-11-22T02:34:56;19.77;;;12.57;;
5871;SDS011;2962;51.312;7.378;2023-11-22T02:37:21;19.07;;;12.77;;
5871;SDS011;2962;51.312;7.378;2023-11-22T02:40:09;16.97;;;12.97;;
5871;SDS011;2962;51.312;7.378;2023-11-22T02:42:42;16.77;;;11.83;;
5871;SDS011;2962;51.312;7.378;2023-11-22T02:45:08;18.43;;;12.23;;
5871;SDS011;2962;51.312;7.378;2023-11-22T02:47:33;17.27;;;12.67;;
5871;SDS011;2962;51.312;7.378;2023-11-22T02:49:59;20.67;;;12.70;;
5871;SDS011;2962;51.312;7.378;2023-11-22T02:52:25;16.73;;;11.47;;
5871;SDS011;2962;51.312;7.378;2023-11-22T02:54:51;20.43;;;12.53;;
5871;SDS011;2962;51.312;7.378;2023-11-22T02:57:17;16.93;;;11.77;;
5871;SDS011;2962;51.312;7.378;2023-11-22T02:59:42;16.00;;;10.80;;
5871;SDS011;2962;51.312;7.378;2023-11-22T03:02:08;18.67;;;11.25;;
5871;SDS011;2962;51.312;7.378;2023-11-22T03:04:33;11.57;;;9.63;;
5871;SDS011;2962;51.312;7.378;2023-11-22T03:06:59;14.53;;;9.97;;
5871;SDS011;2962;51.312;7.378;2023-11-22T03:09:24;14.63;;;10.60;;
5871;SDS011;2962;51.312;7.378;2023-11-22T03:11:51;11.90;;;9.63;;
5871;SDS011;2962;51.312;7.378;2023-11-22T03:14:16;12.40;;;9.13;;
5871;SDS011;2962;51.312;7.378;2023-11-22T03:16:42;13.90;;;9.60;;
5871;SDS011;2962;51.312;7.378;2023-11-22T03:19:07;13.10;;;9.10;;
5871;SDS011;2962;51.312;7.378;2023-11-22T03:21:33;14.50;;;9.40;;
5871;SDS011;2962;51.312;7.378;2023-11-22T03:24:00;10.40;;;8.53;;
5871;SDS011;2962;51.312;7.378;2023-11-22T03:26:28;9.77;;;8.00;;
5871;SDS011;2962;51.312;7.378;2023-11-22T03:28:54;8.90;;;7.73;;
5871;SDS011;2962;51.312;7.378;2023-11-22T03:31:19;10.97;;;7.00;;
5871;SDS011;2962;51.312;7.378;2023-11-22T03:33:44;8.43;;;7.40;;
5871;SDS011;2962;51.312;7.378;2023-11-22T03:36:10;9.10;;;7.70;;
5871;SDS011;2962;51.312;7.378;2023-11-22T03:38:36;7.60;;;6.90;;
5871;SDS011;2962;51.312;7.378;2023-11-22T03:41:01;7.80;;;7.10;;
5871;SDS011;2962;51.312;7.378;2023-11-22T03:43:26;8.30;;;7.47;;
5871;SDS011;2962;51.312;7.378;2023-11-22T03:45:52;8.70;;;7.40;;
5871;SDS011;2962;51.312;7.378;2023-11-22T03:48:17;9.03;;;7.00;;
5871;SDS011;2962;51.312;7.378;2023-11-22T03:50:42;8.17;;;7.40;;
5871;SDS011;2962;51.312;7.378;2023-11-22T03:53:08;9.57;;;8.00;;
5871;SDS011;2962;51.312;7.378;2023-11-22T03:55:33;7.33;;;6.60;;
5871;SDS011;2962;51.312;7.378;2023-11-22T03:57:59;7.38;;;6.72;;
5871;SDS011;2962;51.312;7.378;2023-11-22T04:00:25;10.30;;;8.23;;
5871;SDS011;2962;51.312;7.378;2023-11-22T04:02:50;9.50;;;7.90;;
5871;SDS011;2962;51.312;7.378;2023-11-22T04:05:15;9.17;;;7.53;;
5871;SDS011;2962;51.312;7.378;2023-11-22T04:07:40;12.80;;;7.83;;
5871;SDS011;2962;51.312;7.378;2023-11-22T04:10:06;8.17;;;7.37;;
5871;SDS011;2962;51.312;7.378;2023-11-22T04:12:31;12.63;;;7.10;;
5871;SDS011;2962;51.312;7.378;2023-11-22T04:14:57;9.67;;;7.73;;
5871;SDS011;2962;51.312;7.378;2023-11-22T04:17:23;11.00;;;7.10;;
5871;SDS011;2962;51.312;7.378;2023-11-22T04:19:48;9.20;;;7.57;;
5871;SDS011;2962;51.312;7.378;2023-11-22T04:22:13;12.90;;;6.80;;
5871;SDS011;2962;51.312;7.378;2023-11-22T04:24:39;12.73;;;8.73;;
5871;SDS011;2962;51.312;7.378;2023-11-22T04:27:04;12.57;;;7.13;;
5871;SDS011;2962;51.312;7.378;2023-11-22T04:29:30;9.80;;;7.47;;
5871;SDS011;2962;51.312;7.378;2023-11-22T04:31:55;8.60;;;6.97;;
5871;SDS011;2962;51.312;7.378;2023-11-22T04:34:20;10.83;;;7.70;;
5871;SDS011;2962;51.312;7.378;2023-11-22T04:36:46;16.80;;;7.67;;
5871;SDS011;2962;51.312;7.378;2023-11-22T04:39:14;13.88;;;8.02;;
5871;SDS011;2962;51.312;7.378;2023-11-22T04:41:39;12.10;;;8.50;;
5871;SDS011;2962;51.312;7.378;2023-11-22T04:44:04;14.03;;;7.90;;
5871;SDS011;2962;51.312;7.378;2023-11-22T04:46:30;10.70;;;7.90;;
5871;SDS011;2962;51.312;7.378;2023-11-22T04:48:56;12.20;;;7.80;;
5871;SDS011;2962;51.312;7.378;2023-11-22T04:51:22;12.23;;;8.10;;
5871;SDS011;2962;51.312;7.378;2023-11-22T04:53:49;11.60;;;7.57;;
5871;SDS011;2962;51.312;7.378;2023-11-22T04:56:14;13.00;;;7.50;;
5871;SDS011;2962;51.312;7.378;2023-11-22T04:58:39;14.13;;;8.00;;
5871;SDS011;2962;51.312;7.378;2023-11-22T05:01:05;15.60;;;8.07;;
5871;SDS011;2962;51.312;7.378;2023-11-22T05:03:30;11.83;;;8.03;;
5871;SDS011;2962;51.312;7.378;2023-11-22T05:05:55;14.07;;;8.20;;
5871;SDS011;2962;51.312;7.378;2023-11-22T05:08:20;15.17;;;8.07;;
5871;SDS011;2962;51.312;7.378;2023-11-22T05:10:46;13.17;;;8.33;;
5871;SDS011;2962;51.312;7.378;2023-11-22T05:13:11;14.70;;;7.73;;
5871;SDS011;2962;51.312;7.378;2023-11-22T05:15:37;14.27;;;7.90;;
5871;SDS011;2962;51.312;7.378;2023-11-22T05:18:02;16.13;;;8.20;;
5871;SDS011;2962;51.312;7.378;2023-11-22T05:20:27;11.90;;;7.80;;
5871;SDS011;2962;51.312;7.378;2023-11-22T05:22:53;18.40;;;8.80;;
5871;SDS011;2962;51.312;7.378;2023-11-22T05:25:18;10.73;;;7.67;;
5871;SDS011;2962;51.312;7.378;2023-11-22T05:27:43;15.63;;;9.23;;
5871;SDS011;2962;51.312;7.378;2023-11-22T05:30:09;12.97;;;7.90;;
5871;SDS011;2962;51.312;7.378;2023-11-22T05:32:35;11.23;;;7.57;;
5871;SDS011;2962;51.312;7.378;2023-11-22T05:35:01;14.87;;;7.90;;
5871;SDS011;2962;51.312;7.378;2023-11-22T05:37:26;11.80;;;7.60;;
5871;SDS011;2962;51.312;7.378;2023-11-22T05:39:51;12.70;;;7.77;;
5871;SDS011;2962;51.312;7.378;2023-11-22T05:42:16;9.77;;;7.70;;
5871;SDS011;2962;51.312;7.378;2023-11-22T05:44:42;13.88;;;9.35;;
5871;SDS011;2962;51.312;7.378;2023-11-22T05:47:08;13.90;;;8.40;;
5871;SDS011;2962;51.312;7.378;2023-11-22T05:49:36;17.73;;;9.53;;
5871;SDS011;2962;51.312;7.378;2023-11-22T05:52:02;14.93;;;9.25;;
5871;SDS011;2962;51.312;7.378;2023-11-22T05:54:27;16.07;;;10.33;;
5871;SDS011;2962;51.312;7.378;2023-11-22T05:56:52;19.83;;;11.33;;
5871;SDS011;2962;51.312;7.378;2023-11-22T05:59:17;22.50;;;10.07;;
5871;SDS011;2962;51.312;7.378;2023-11-22T06:01:43;17.83;;;9.90;;
5871;SDS011;2962;51.312;7.378;2023-11-22T06:04:08;18.83;;;9.80;;
5871;SDS011;2962;51.312;7.378;2023-11-22T06:06:34;20.65;;;9.52;;
5871;SDS011;2962;51.312;7.378;2023-11-22T06:09:00;16.73;;;8.60;;
5871;SDS011;2962;51.312;7.378;2023-11-22T06:11:25;19.00;;;8.67;;
5871;SDS011;2962;51.312;7.378;2023-11-22T06:13:50;22.03;;;10.53;;
5871;SDS011;2962;51.312;7.378;2023-11-22T06:16:16;14.03;;;8.93;;
5871;SDS011;2962;51.312;7.378;2023-11-22T06:18:42;17.93;;;8.90;;
5871;SDS011;2962;51.312;7.378;2023-11-22T06:21:09;17.20;;;8.23;;
5871;SDS011;2962;51.312;7.378;2023-11-22T06:23:34;17.47;;;9.17;;
5871;SDS011;2962;51.312;7.378;2023-11-22T06:25:59;14.03;;;8.87;;
5871;SDS011;2962;51.312;7.378;2023-11-22T06:28:25;16.70;;;9.50;;
5871;SDS011;2962;51.312;7.378;2023-11-22T06:30:50;17.17;;;9.70;;
5871;SDS011;2962;51.312;7.378;2023-11-22T06:33:15;14.20;;;9.37;;
5871;SDS011;2962;51.312;7.378;2023-11-22T06:35:41;19.23;;;9.70;;
5871;SDS011;2962;51.312;7.378;2023-11-22T06:38:07;13.98;;;8.45;;
5871;SDS011;2962;51.312;7.378;2023-11-22T06:40:33;17.23;;;8.43;;
5871;SDS011;2962;51.312;7.378;2023-11-22T06:42:58;14.27;;;8.40;;
5871;SDS011;2962;51.312;7.378;2023-11-22T06:45:24;15.13;;;8.50;;
5871;SDS011;2962;51.312;7.378;2023-11-22T06:47:49;20.33;;;8.80;;
5871;SDS011;2962;51.312;7.378;2023-11-22T06:50:15;17.23;;;9.40;;
5871;SDS011;2962;51.312;7.378;2023-11-22T06:52:41;14.83;;;8.17;;
5871;SDS011;2962;51.312;7.378;2023-11-22T06:55:07;16.50;;;8.70;;
5871;SDS011;2962;51.312;7.378;2023-11-22T06:57:34;14.00;;;7.90;;
5871;SDS011;2962;51.312;7.378;2023-11-22T07:00:00;12.32;;;8.55;;
5871;SDS011;2962;51.312;7.378;2023-11-22T07:02:29;12.43;;;7.95;;
5871;SDS011;2962;51.312;7.378;2023-11-22T07:04:55;14.83;;;8.40;;
5871;SDS011;2962;51.312;7.378;2023-11-22T07:07:20;14.07;;;7.93;;
5871;SDS011;2962;51.312;7.378;2023-11-22T07:09:46;10.93;;;7.17;;
5871;SDS011;2962;51.312;7.378;2023-11-22T07:12:11;11.50;;;7.80;;
5871;SDS011;2962;51.312;7.378;2023-11-22T07:14:36;11.97;;;8.60;;
5871;SDS011;2962;51.312;7.378;2023-11-22T07:17:02;12.53;;;8.03;;
5871;SDS011;2962;51.312;7.378;2023-11-22T07:19:28;15.50;;;7.43;;
5871;SDS011;2962;51.312;7.378;2023-11-22T07:21:54;14.73;;;8.37;;
5871;SDS011;2962;51.312;7.378;2023-11-22T07:24:19;17.40;;;7.73;;
5871;SDS011;2962;51.312;7.378;2023-11-22T07:26:44;12.50;;;7.60;;
5871;SDS011;2962;51.312;7.378;2023-11-22T07:29:10;12.10;;;8.00;;
5871;SDS011;2962;51.312;7.378;2023-11-22T07:31:37;8.18;;;7.18;;
5871;SDS011;2962;51.312;7.378;2023-11-22T07:34:02;12.40;;;6.93;;
5871;SDS011;2962;51.312;7.378;2023-11-22T07:36:28;8.70;;;5.90;;
5871;SDS011;2962;51.312;7.378;2023-11-22T07:38:53;6.43;;;5.83;;
5871;SDS011;2962;51.312;7.378;2023-11-22T07:41:19;5.70;;;5.30;;
5871;SDS011;2962;51.312;7.378;2023-11-22T07:43:44;5.90;;;5.30;;
5871;SDS011;2962;51.312;7.378;2023-11-22T07:46:10;9.73;;;5.57;;
5871;SDS011;2962;51.312;7.378;2023-11-22T07:48:38;8.20;;;5.45;;
5871;SDS011;2962;51.312;7.378;2023-11-22T07:51:03;5.60;;;5.10;;
5871;SDS011;2962;51.312;7.378;2023-11-22T07:53:30;7.97;;;5.33;;
5871;SDS011;2962;51.312;7.378;2023-11-22T07:55:59;9.30;;;4.13;;
5871;SDS011;2962;51.312;7.378;2023-11-22T07:58:24;5.77;;;5.27;;
5871;SDS011;2962;51.312;7.378;2023-11-22T08:00:50;4.80;;;4.57;;
5871;SDS011;2962;51.312;7.378;2023-11-22T08:03:15;4.10;;;3.80;;
5871;SDS011;2962;51.312;7.378;2023-11-22T08:05:43;6.60;;;4.53;;
5871;SDS011;2962;51.312;7.378;2023-11-22T08:08:13;3.97;;;3.77;;
5871;SDS011;2962;51.312;7.378;2023-11-22T08:10:38;4.33;;;4.03;;
5871;SDS011;2962;51.312;7.378;2023-11-22T08:13:03;6.30;;;5.77;;
5871;SDS011;2962;51.312;7.378;2023-11-22T08:15:29;7.37;;;6.63;;
5871;SDS011;2962;51.312;7.378;2023-11-22T08:17:56;7.27;;;6.50;;
5871;SDS011;2962;51.312;7.378;2023-11-22T08:20:22;6.73;;;5.83;;
5871;SDS011;2962;51.312;7.378;2023-11-22T08:22:47;8.43;;;5.90;;
5871;SDS011;2962;51.312;7.378;2023-11-22T08:25:15;6.20;;;5.27;;
5871;SDS011;2962;51.312;7.378;2023-11-22T08:27:41;6.30;;;5.30;;
5871;SDS011;2962;51.312;7.378;2023-11-22T08:30:07;5.07;;;4.70;;
5871;SDS011;2962;51.312;7.378;2023-11-22T08:32:38;6.23;;;5.73;;
5871;SDS011;2962;51.312;7.378;2023-11-22T08:35:13;4.87;;;4.57;;
5871;SDS011;2962;51.312;7.378;2023-11-22T08:37:40;5.60;;;5.23;;
5871;SDS011;2962;51.312;7.378;2023-11-22T08:40:08;7.43;;;4.97;;
5871;SDS011;2962;51.312;7.378;2023-11-22T08:42:39;4.90;;;4.43;;
5871;SDS011;2962;51.312;7.378;2023-11-22T08:45:06;3.67;;;3.47;;
5871;SDS011;2962;51.312;7.378;2023-11-22T08:47:33;3.30;;;3.10;;
5871;SDS011;2962;51.312;7.378;2023-11-22T08:49:58;3.90;;;2.77;;
5871;SDS011;2962;51.312;7.378;2023-11-22T08:52:24;2.27;;;2.17;;
5871;SDS011;2962;51.312;7.378;2023-11-22T08:54:50;3.10;;;2.90;;
5871;SDS011;2962;51.312;7.378;2023-11-22T08:57:16;3.20;;;2.87;;
5871;SDS011;2962;51.312;7.378;2023-11-22T08:59:42;2.60;;;2.50;;
5871;SDS011;2962;51.312;7.378;2023-11-22T09:02:07;2.60;;;2.47;;
5871;SDS011;2962;51.312;7.378;2023-11-22T09:04:33;2.50;;;2.30;;
5871;SDS011;2962;51.312;7.378;2023-11-22T09:06:58;2.53;;;2.50;;
5871;SDS011;2962;51.312;7.378;2023-11-22T09:09:25;3.23;;;3.00;;
5871;SDS011;2962;51.312;7.378;2023-11-22T09:11:56;5.67;;;2.43;;
5871;SDS011;2962;51.312;7.378;2023-11-22T09:14:22;2.83;;;2.60;;
5871;SDS011;2962;51.312;7.378;2023-11-22T09:16:48;2.20;;;2.17;;
5871;SDS011;2962;51.312;7.378;2023-11-22T09:19:19;2.70;;;2.50;;
5871;SDS011;2962;51.312;7.378;2023-11-22T09:21:44;3.20;;;2.90;;
5871;SDS011;2962;51.312;7.378;2023-11-22T09:24:10;2.30;;;2.30;;
5871;SDS011;2962;51.312;7.378;2023-11-22T09:26:37;3.27;;;3.10;;
5871;SDS011;2962;51.312;7.378;2023-11-22T09:29:03;2.10;;;1.93;;
5871;SDS011;2962;51.312;7.378;2023-11-22T09:31:29;2.27;;;1.93;;
5871;SDS011;2962;51.312;7.378;2023-11-22T09:33:55;2.10;;;2.00;;
5871;SDS011;2962;51.312;7.378;2023-11-22T09:36:21;1.60;;;1.50;;
5871;SDS011;2962;51.312;7.378;2023-11-22T09:38:50;2.07;;;2.07;;
5871;SDS011;2962;51.312;7.378;2023-11-22T09:41:17;2.80;;;1.90;;
5871;SDS011;2962;51.312;7.378;2023-11-22T09:43:42;2.20;;;2.13;;
5871;SDS011;2962;51.312;7.378;2023-11-22T09:46:09;2.10;;;2.00;;
5871;SDS011;2962;51.312;7.378;2023-11-22T09:48:36;2.50;;;2.30;;
5871;SDS011;2962;51.312;7.378;2023-11-22T09:56:08;1.60;;;1.60;;
5871;SDS011;2962;51.312;7.378;2023-11-22T09:58:35;1.77;;;1.77;;
5871;SDS011;2962;51.312;7.378;2023-11-22T10:01:02;1.90;;;1.90;;
5871;SDS011;2962;51.312;7.378;2023-11-22T10:03:32;1.70;;;1.50;;
5871;SDS011;2962;51.312;7.378;2023-11-22T10:05:58;2.00;;;1.80;;
5871;SDS011;2962;51.312;7.378;2023-11-22T10:08:27;1.60;;;1.50;;
5871;SDS011;2962;51.312;7.378;2023-11-22T10:10:54;1.67;;;1.57;;
5871;SDS011;2962;51.312;7.378;2023-11-22T10:13:20;1.47;;;1.40;;
5871;SDS011;2962;51.312;7.378;2023-11-22T10:15:47;1.23;;;1.23;;
5871;SDS011;2962;51.312;7.378;2023-11-22T10:18:13;1.20;;;1.20;;
5871;SDS011;2962;51.312;7.378;2023-11-22T10:20:42;1.60;;;1.60;;
5871;SDS011;2962;51.312;7.378;2023-11-22T10:23:12;0.70;;;0.70;;
5871;SDS011;2962;51.312;7.378;2023-11-22T10:25:44;1.10;;;1.10;;
5871;SDS011;2962;51.312;7.378;2023-11-22T10:28:20;1.10;;;1.10;;
5871;SDS011;2962;51.312;7.378;2023-11-22T10:30:51;1.43;;;1.37;;
5871;SDS011;2962;51.312;7.378;2023-11-22T10:33:18;1.30;;;1.30;;
5871;SDS011;2962;51.312;7.378;2023-11-22T10:35:48;2.20;;;1.20;;
5871;SDS011;2962;51.312;7.378;2023-11-22T10:38:16;4.10;;;1.50;;
5871;SDS011;2962;51.312;7.378;2023-11-22T10:40:42;1.40;;;1.30;;
5871;SDS011;2962;51.312;7.378;2023-11-22T10:43:10;1.37;;;1.37;;
5871;SDS011;2962;51.312;7.378;2023-11-22T10:45:36;1.77;;;1.77;;
5871;SDS011;2962;51.312;7.378;2023-11-22T10:48:02;1.90;;;1.90;;
5871;SDS011;2962;51.312;7.378;2023-11-22T10:50:28;2.80;;;2.60;;
5871;SDS011;2962;51.312;7.378;2023-11-22T10:52:53;2.43;;;2.33;;
5871;SDS011;2962;51.312;7.378;2023-11-22T10:55:22;3.20;;;3.10;;
5871;SDS011;2962;51.312;7.378;2023-11-22T10:57:52;3.23;;;2.60;;
5871;SDS011;2962;51.312;7.378;2023-11-22T11:00:21;3.40;;;3.10;;
5871;SDS011;2962;51.312;7.378;2023-11-22T11:02:51;2.77;;;2.67;;
5871;SDS011;2962;51.312;7.378;2023-11-22T11:05:25;3.00;;;2.90;;
5871;SDS011;2962;51.312;7.378;2023-11-22T11:08:00;3.20;;;3.00;;
5871;SDS011;2962;51.312;7.378;2023-11-22T11:10:38;3.20;;;3.00;;
5871;SDS011;2962;51.312;7.378;2023-11-22T11:13:05;2.70;;;2.60;;
5871;SDS011;2962;51.312;7.378;2023-11-22T11:15:31;2.80;;;2.60;;
5871;SDS011;2962;51.312;7.378;2023-11-22T11:17:57;2.00;;;1.90;;
5871;SDS011;2962;51.312;7.378;2023-11-22T11:20:23;2.67;;;2.47;;
5871;SDS011;2962;51.312;7.378;2023-11-22T11:22:48;3.90;;;2.13;;
5871;SDS011;2962;51.312;7.378;2023-11-22T11:25:15;1.87;;;1.83;;
5871;SDS011;2962;51.312;7.378;2023-11-22T11:27:44;2.37;;;2.37;;
5871;SDS011;2962;51.312;7.378;2023-11-22T11:32:57;1.70;;;1.70;;
5871;SDS011;2962;51.312;7.378;2023-11-22T11:35:41;2.27;;;1.23;;
5871;SDS011;2962;51.312;7.378;2023-11-22T11:38:19;2.43;;;2.27;;
5871;SDS011;2962;51.312;7.378;2023-11-22T11:40:45;1.30;;;1.30;;
5871;SDS011;2962;51.312;7.378;2023-11-22T11:43:12;1.13;;;1.13;;
5871;SDS011;2962;51.312;7.378;2023-11-22T11:45:44;1.10;;;1.10;;
5871;SDS011;2962;51.312;7.378;2023-11-22T11:48:12;0.63;;;0.63;;
5871;SDS011;2962;51.312;7.378;2023-11-22T11:50:39;0.83;;;0.83;;
5871;SDS011;2962;51.312;7.378;2023-11-22T11:53:08;0.57;;;0.50;;
5871;SDS011;2962;51.312;7.378;2023-11-22T11:55:35;0.73;;;0.73;;
5871;SDS011;2962;51.312;7.378;2023-11-22T11:58:05;1.03;;;1.03;;
5871;SDS011;2962;51.312;7.378;2023-11-22T12:00:34;1.23;;;1.13;;
5871;SDS011;2962;51.312;7.378;2023-11-22T12:03:08;0.87;;;0.87;;
5871;SDS011;2962;51.312;7.378;2023-11-22T12:05:35;0.80;;;0.80;;
5871;SDS011;2962;51.312;7.378;2023-11-22T12:08:01;0.97;;;0.97;;
5871;SDS011;2962;51.312;7.378;2023-11-22T12:10:27;0.93;;;0.93;;
5871;SDS011;2962;51.312;7.378;2023-11-22T12:12:52;1.90;;;0.87;;
5871;SDS011;2962;51.312;7.378;2023-11-22T12:15:18;0.70;;;0.70;;
5871;SDS011;2962;51.312;7.378;2023-11-22T12:17:43;0.63;;;0.63;;
5871;SDS011;2962;51.312;7.378;2023-11-22T12:20:13;0.97;;;0.97;;
5871;SDS011;2962;51.312;7.378;2023-11-22T12:22:40;1.20;;;1.10;;
5871;SDS011;2962;51.312;7.378;2023-11-22T12:25:06;1.20;;;0.70;;
5871;SDS011;2962;51.312;7.378;2023-11-22T12:27:32;0.80;;;0.80;;
5871;SDS011;2962;51.312;7.378;2023-11-22T12:29:57;0.80;;;0.80;;
5871;SDS011;2962;51.312;7.378;2023-11-22T12:32:26;1.07;;;1.00;;
5871;SDS011;2962;51.312;7.378;2023-11-22T12:34:51;0.70;;;0.70;;
5871;SDS011;2962;51.312;7.378;2023-11-22T12:37:21;0.70;;;0.70;;
5871;SDS011;2962;51.312;7.378;2023-11-22T12:39:48;0.67;;;0.67;;
5871;SDS011;2962;51.312;7.378;2023-11-22T12:42:13;0.80;;;0.80;;
5871;SDS011;2962;51.312;7.378;2023-11-22T12:44:48;0.80;;;0.73;;
5871;SDS011;2962;51.312;7.378;2023-11-22T12:47:32;0.83;;;0.83;;
5871;SDS011;2962;51.312;7.378;2023-11-22T12:50:02;0.80;;;0.80;;
5871;SDS011;2962;51.312;7.378;2023-11-22T12:52:29;0.80;;;0.80;;
5871;SDS011;2962;51.312;7.378;2023-11-22T12:54:57;0.70;;;0.70;;
5871;SDS011;2962;51.312;7.378;2023-11-22T12:57:22;0.87;;;0.87;;
5871;SDS011;2962;51.312;7.378;2023-11-22T12:59:48;1.40;;;1.30;;
5871;SDS011;2962;51.312;7.378;2023-11-22T13:02:13;1.50;;;1.40;;
5871;SDS011;2962;51.312;7.378;2023-11-22T13:04:40;1.43;;;1.40;;
5871;SDS011;2962;51.312;7.378;2023-11-22T13:07:05;1.10;;;1.10;;
5871;SDS011;2962;51.312;7.378;2023-11-22T13:09:31;0.80;;;0.80;;
5871;SDS011;2962;51.312;7.378;2023-11-22T13:11:57;0.93;;;0.93;;
5871;SDS011;2962;51.312;7.378;2023-11-22T13:14:23;0.80;;;0.80;;
5871;SDS011;2962;51.312;7.378;2023-11-22T13:16:50;1.87;;;0.90;;
5871;SDS011;2962;51.312;7.378;2023-11-22T13:19:16;0.80;;;0.80;;
5871;SDS011;2962;51.312;7.378;2023-11-22T13:21:41;0.93;;;0.90;;
5871;SDS011;2962;51.312;7.378;2023-11-22T13:24:06;0.67;;;0.67;;
5871;SDS011;2962;51.312;7.378;2023-11-22T13:26:32;0.80;;;0.80;;
5871;SDS011;2962;51.312;7.378;2023-11-22T13:28:59;1.00;;;1.00;;
5871;SDS011;2962;51.312;7.378;2023-11-22T13:31:24;1.20;;;1.20;;
5871;SDS011;2962;51.312;7.378;2023-11-22T13:33:50;1.07;;;1.07;;
5871;SDS011;2962;51.312;7.378;2023-11-22T13:36:15;1.20;;;1.07;;
5871;SDS011;2962;51.312;7.378;2023-11-22T13:38:40;0.90;;;0.90;;
5871;SDS011;2962;51.312;7.378;2023-11-22T13:41:06;0.73;;;0.73;;
5871;SDS011;2962;51.312;7.378;2023-11-22T13:43:31;1.00;;;1.00;;
5871;SDS011;2962;51.312;7.378;2023-11-22T13:46:00;1.00;;;1.00;;
5871;SDS011;2962;51.312;7.378;2023-11-22T13:48:25;1.90;;;1.07;;
5871;SDS011;2962;51.312;7.378;2023-11-22T13:50:51;4.63;;;1.20;;
5871;SDS011;2962;51.312;7.378;2023-11-22T13:53:16;0.90;;;0.90;;
5871;SDS011;2962;51.312;7.378;2023-11-22T13:55:46;0.97;;;0.97;;
5871;SDS011;2962;51.312;7.378;2023-11-22T13:58:11;1.03;;;0.93;;
5871;SDS011;2962;51.312;7.378;2023-11-22T14:00:37;0.83;;;0.83;;
5871;SDS011;2962;51.312;7.378;2023-11-22T14:03:04;1.00;;;1.00;;
5871;SDS011;2962;51.312;7.378;2023-11-22T14:05:31;0.97;;;0.97;;
5871;SDS011;2962;51.312;7.378;2023-11-22T14:07:58;0.90;;;0.90;;
5871;SDS011;2962;51.312;7.378;2023-11-22T14:10:23;1.17;;;0.70;;
5871;SDS011;2962;51.312;7.378;2023-11-22T14:12:49;1.67;;;0.60;;
5871;SDS011;2962;51.312;7.378;2023-11-22T14:15:16;1.17;;;1.17;;
5871;SDS011;2962;51.312;7.378;2023-11-22T14:17:42;1.70;;;1.07;;
5871;SDS011;2962;51.312;7.378;2023-11-22T14:20:10;0.97;;;0.67;;
5871;SDS011;2962;51.312;7.378;2023-11-22T14:22:37;1.10;;;1.00;;
5871;SDS011;2962;51.312;7.378;2023-11-22T14:25:04;1.50;;;0.87;;
5871;SDS011;2962;51.312;7.378;2023-11-22T14:27:32;0.70;;;0.57;;
5871;SDS011;2962;51.312;7.378;2023-11-22T14:29:58;0.90;;;0.90;;
5871;SDS011;2962;51.312;7.378;2023-11-22T14:32:24;1.40;;;1.30;;
5871;SDS011;2962;51.312;7.378;2023-11-22T14:34:49;1.20;;;1.20;;
5871;SDS011;2962;51.312;7.378;2023-11-22T14:37:14;0.60;;;0.60;;
5871;SDS011;2962;51.312;7.378;2023-11-22T14:39:42;2.33;;;1.70;;
5871;SDS011;2962;51.312;7.378;2023-11-22T14:42:09;1.00;;;1.00;;
5871;SDS011;2962;51.312;7.378;2023-11-22T14:44:36;1.00;;;1.00;;
5871;SDS011;2962;51.312;7.378;2023-11-22T14:47:03;1.57;;;1.13;;
5871;SDS011;2962;51.312;7.378;2023-11-22T14:49:32;0.80;;;0.80;;
5871;SDS011;2962;51.312;7.378;2023-11-22T14:51:58;2.37;;;1.63;;
5871;SDS011;2962;51.312;7.378;2023-11-22T14:54:23;1.20;;;1.20;;
5871;SDS011;2962;51.312;7.378;2023-11-22T14:56:48;1.20;;;1.20;;
5871;SDS011;2962;51.312;7.378;2023-11-22T14:59:14;1.20;;;1.20;;
5871;SDS011;2962;51.312;7.378;2023-11-22T15:01:40;1.47;;;1.47;;
5871;SDS011;2962;51.312;7.378;2023-11-22T15:04:08;1.10;;;1.10;;
5871;SDS011;2962;51.312;7.378;2023-11-22T15:06:34;1.57;;;1.47;;
5871;SDS011;2962;51.312;7.378;2023-11-22T15:09:00;1.40;;;1.40;;